createdAt,value
2022-10-05T00:01:52.907Z,3.42
2022-10-05T00:04:24.097Z,3.95
2022-10-05T00:07:17.427Z,3.35
2022-10-05T00:09:59.002Z,3.78
2022-10-05T00:12:28.269Z,3.15
2022-10-05T00:15:01.396Z,3.83
2022-10-05T00:17:30.338Z,3.33
2022-10-05T00:19:57.101Z,2.90
2022-10-05T00:22:29.780Z,3.72
2022-10-05T00:24:58.910Z,3.28
2022-10-05T00:27:31.469Z,3.47
2022-10-05T00:32:26.036Z,3.80
2022-10-05T00:34:52.632Z,3.42
2022-10-05T00:37:19.271Z,3.50
2022-10-05T00:39:46.416Z,3.70
2022-10-05T00:42:50.341Z,4.35
2022-10-05T00:45:27.435Z,4.10
2022-10-05T00:48:42.000Z,3.58
2022-10-05T00:51:30.959Z,3.30
2022-10-05T00:54:41.781Z,3.17
2022-10-05T00:57:38.050Z,2.85
2022-10-05T01:00:08.643Z,3.40
2022-10-05T01:02:58.366Z,3.25
2022-10-05T01:05:46.770Z,3.55
2022-10-05T01:08:47.491Z,3.03
2022-10-05T01:11:50.890Z,3.17
2022-10-05T01:20:51.523Z,2.67
2022-10-05T01:27:08.813Z,3.28
2022-10-05T01:29:51.888Z,2.85
2022-10-05T01:32:44.435Z,2.80
2022-10-05T01:36:08.010Z,3.13
2022-10-05T01:44:56.548Z,3.13
2022-10-05T01:47:43.952Z,3.47
2022-10-05T01:50:49.651Z,2.47
2022-10-05T01:53:37.943Z,3.50
2022-10-05T01:56:23.175Z,2.50
2022-10-05T02:02:14.589Z,2.65
2022-10-05T02:05:01.883Z,2.33
2022-10-05T02:07:45.601Z,2.17
2022-10-05T02:10:23.988Z,2.88
2022-10-05T02:12:57.350Z,2.80
2022-10-05T02:15:33.324Z,2.33
2022-10-05T02:18:06.821Z,3.25
2022-10-05T02:20:37.378Z,2.80
2022-10-05T02:23:09.402Z,3.20
2022-10-05T02:25:39.778Z,4.40
2022-10-05T02:28:12.540Z,3.78
2022-10-05T02:30:47.712Z,4.05
2022-10-05T02:33:30.741Z,3.38
2022-10-05T02:36:07.764Z,3.13
2022-10-05T02:38:54.529Z,2.75
2022-10-05T02:41:44.426Z,3.08
2022-10-05T02:44:50.315Z,3.70
2022-10-05T02:47:41.928Z,2.90
2022-10-05T02:50:26.923Z,2.70
2022-10-05T02:53:15.635Z,3.22
2022-10-05T02:56:08.813Z,3.40
2022-10-05T02:58:51.494Z,2.58
2022-10-05T03:01:31.759Z,2.83
2022-10-05T03:04:20.152Z,3.05
2022-10-05T03:07:23.734Z,3.10
2022-10-05T03:10:14.874Z,2.58
2022-10-05T03:13:00.108Z,2.50
2022-10-05T03:15:53.830Z,2.85
2022-10-05T03:19:05.150Z,2.97
2022-10-05T03:21:52.077Z,2.95
2022-10-05T03:24:55.727Z,3.22
2022-10-05T03:27:47.940Z,3.00
2022-10-05T03:30:19.591Z,3.08
2022-10-05T03:33:47.813Z,3.37
2022-10-05T03:36:33.053Z,3.10
2022-10-05T03:39:10.901Z,3.30
2022-10-05T03:42:07.042Z,3.38
2022-10-05T03:45:07.615Z,3.15
2022-10-05T03:48:03.637Z,2.85
2022-10-05T03:50:48.134Z,3.00
2022-10-05T03:53:29.883Z,3.30
2022-10-05T03:56:07.320Z,2.63
2022-10-05T03:58:49.849Z,2.92
2022-10-05T04:01:22.428Z,2.60
2022-10-05T04:04:04.146Z,4.93
2022-10-05T04:06:34.966Z,2.70
2022-10-05T04:09:27.970Z,3.03
2022-10-05T04:17:10.567Z,2.83
2022-10-05T04:19:59.986Z,2.72
2022-10-05T04:22:40.898Z,2.88
2022-10-05T04:25:28.666Z,3.13
2022-10-05T04:28:06.476Z,3.10
2022-10-05T04:30:34.879Z,2.83
2022-10-05T04:33:01.948Z,3.03
2022-10-05T04:35:50.178Z,2.90
2022-10-05T04:38:55.382Z,3.17
2022-10-05T04:41:52.154Z,2.42
2022-10-05T04:44:47.883Z,2.85
2022-10-05T04:47:55.102Z,2.75
2022-10-05T04:50:49.507Z,3.65
2022-10-05T04:53:44.437Z,2.72
2022-10-05T04:56:32.698Z,3.25
2022-10-05T04:59:54.148Z,2.90
2022-10-05T05:03:05.253Z,3.47
2022-10-05T05:06:18.313Z,3.40
2022-10-05T05:12:07.775Z,3.17
2022-10-05T05:15:07.050Z,3.00
2022-10-05T05:17:47.019Z,3.30
2022-10-05T05:20:39.230Z,3.15
2022-10-05T05:23:15.223Z,2.92
2022-10-05T05:26:02.660Z,3.15
2022-10-05T05:28:53.896Z,3.55
2022-10-05T05:31:33.316Z,3.70
2022-10-05T05:34:31.256Z,3.40
2022-10-05T05:37:32.642Z,4.35
2022-10-05T05:40:36.238Z,6.88
2022-10-05T05:43:16.790Z,5.97
2022-10-05T05:45:57.831Z,5.07
2022-10-05T05:48:46.631Z,5.10
2022-10-05T05:51:19.272Z,4.80
2022-10-05T05:56:20.697Z,3.40
2022-10-05T06:01:52.563Z,3.00
2022-10-05T06:04:25.056Z,3.50
2022-10-05T06:06:54.307Z,3.05
2022-10-05T06:09:41.877Z,3.40
2022-10-05T06:12:27.488Z,4.45
2022-10-05T06:15:20.299Z,4.53
2022-10-05T06:17:55.084Z,4.15
2022-10-05T06:20:35.585Z,3.78
2022-10-05T06:23:07.534Z,4.15
2022-10-05T06:26:10.812Z,4.38
2022-10-05T06:28:38.335Z,4.82
2022-10-05T06:31:29.736Z,4.13
2022-10-05T06:34:18.478Z,4.03
2022-10-05T06:37:07.254Z,3.65
2022-10-05T06:40:23.703Z,3.88
2022-10-05T06:43:43.304Z,3.10
2022-10-05T06:46:23.669Z,3.38
2022-10-05T06:49:13.051Z,4.32
2022-10-05T06:51:55.640Z,3.53
2022-10-05T06:55:20.983Z,3.38
2022-10-05T06:57:59.430Z,3.05
2022-10-05T07:00:44.049Z,2.92
2022-10-05T07:03:20.846Z,3.78
2022-10-05T07:06:12.750Z,3.22
2022-10-05T07:09:00.769Z,4.15
2022-10-05T07:12:05.395Z,3.80
2022-10-05T07:14:52.116Z,3.40
2022-10-05T07:17:44.200Z,3.67
2022-10-05T07:20:48.258Z,4.03
2022-10-05T07:24:04.615Z,3.25
2022-10-05T07:26:42.156Z,3.50
2022-10-05T07:29:59.352Z,3.42
2022-10-05T07:33:14.133Z,3.38
2022-10-05T07:36:34.947Z,3.72
2022-10-05T07:39:14.447Z,3.45
2022-10-05T07:41:52.970Z,3.30
2022-10-05T07:44:53.904Z,3.50
2022-10-05T07:47:37.371Z,3.35
2022-10-05T07:50:38.834Z,3.78
2022-10-05T07:53:15.414Z,4.07
2022-10-05T07:55:50.152Z,3.40
2022-10-05T07:58:59.487Z,3.10
2022-10-05T08:01:33.502Z,3.28
2022-10-05T08:04:25.415Z,3.03
2022-10-05T08:07:01.878Z,3.47
2022-10-05T08:10:15.581Z,4.18
2022-10-05T08:13:30.565Z,4.22
2022-10-05T08:16:06.636Z,3.85
2022-10-05T08:18:59.558Z,3.63
2022-10-05T08:21:35.772Z,5.75
2022-10-05T08:24:41.282Z,4.90
2022-10-05T08:27:46.909Z,4.63
2022-10-05T08:30:16.266Z,4.05
2022-10-05T08:33:09.940Z,4.13
2022-10-05T08:35:46.302Z,3.72
2022-10-05T08:38:28.814Z,3.72
2022-10-05T08:41:49.606Z,3.50
2022-10-05T08:44:55.114Z,3.70
2022-10-05T08:47:50.411Z,4.10
2022-10-05T08:50:39.736Z,3.83
2022-10-05T08:53:23.663Z,4.53
2022-10-05T08:56:29.372Z,3.38
2022-10-05T08:59:40.624Z,3.60
2022-10-05T09:02:21.497Z,3.42
2022-10-05T09:05:03.821Z,3.47
2022-10-05T09:08:09.355Z,3.00
2022-10-05T09:11:10.930Z,3.08
2022-10-05T09:14:23.874Z,3.13
2022-10-05T09:17:20.226Z,3.35
2022-10-05T09:20:12.281Z,3.63
2022-10-05T09:23:25.093Z,3.43
2022-10-05T09:26:03.810Z,3.22
2022-10-05T09:29:19.499Z,3.88
2022-10-05T09:32:25.248Z,3.47
2022-10-05T09:35:22.242Z,3.25
2022-10-05T09:38:30.258Z,2.78
2022-10-05T09:41:43.230Z,3.92
2022-10-05T10:21:09.532Z,3.42
2022-10-05T10:24:40.899Z,2.75
2022-10-05T10:27:51.586Z,3.50
2022-10-05T10:30:54.471Z,2.50
2022-10-05T10:33:56.263Z,2.70
2022-10-05T10:37:11.544Z,2.78
2022-10-05T10:40:21.592Z,2.70
2022-10-05T10:43:23.037Z,2.65
2022-10-05T10:46:28.482Z,2.63
2022-10-05T10:49:40.098Z,2.47
2022-10-05T10:52:14.483Z,2.75
2022-10-05T10:55:25.191Z,3.20
2022-10-05T10:58:28.464Z,2.97
2022-10-05T11:01:37.000Z,3.13
2022-10-05T11:04:35.285Z,2.83
2022-10-05T11:07:45.720Z,3.08
2022-10-05T11:10:46.432Z,3.00
2022-10-05T11:13:31.703Z,3.13
2022-10-05T11:16:35.551Z,3.45
2022-10-05T11:20:05.032Z,2.72
2022-10-05T11:22:57.775Z,4.30
2022-10-05T11:25:48.877Z,3.17
2022-10-05T11:29:10.637Z,2.45
2022-10-05T11:32:17.327Z,3.20
2022-10-05T11:35:26.094Z,2.90
2022-10-05T11:38:31.598Z,2.90
2022-10-05T11:41:22.722Z,2.67
2022-10-05T11:44:51.958Z,2.85
2022-10-05T11:50:39.843Z,3.08
2022-10-05T11:56:38.253Z,2.65
2022-10-05T12:19:41.124Z,2.83
2022-10-05T12:22:20.430Z,2.88
2022-10-05T12:49:53.583Z,3.05
2022-10-05T12:52:56.033Z,2.40
2022-10-05T13:31:12.688Z,4.38
2022-10-05T13:33:54.357Z,3.58
2022-10-05T13:36:36.369Z,3.53
2022-10-05T13:39:43.707Z,4.03
2022-10-05T13:42:15.897Z,4.35
2022-10-05T13:45:00.366Z,4.82
2022-10-05T13:47:38.984Z,3.90
2022-10-05T13:50:21.511Z,4.20
2022-10-05T13:53:13.131Z,5.07
2022-10-05T13:55:49.712Z,4.65
2022-10-05T13:58:29.713Z,4.70
2022-10-05T14:01:00.614Z,4.65
2022-10-05T14:03:36.078Z,3.67
2022-10-05T14:06:30.751Z,3.67
2022-10-05T14:09:00.297Z,3.67
2022-10-05T14:11:33.166Z,3.40
2022-10-05T14:14:23.509Z,3.40
2022-10-05T14:16:53.906Z,2.97
2022-10-05T14:19:45.598Z,3.35
2022-10-05T14:22:24.220Z,2.80
2022-10-05T14:25:18.151Z,2.80
2022-10-05T14:28:32.458Z,2.83
2022-10-05T14:31:13.092Z,2.53
2022-10-05T14:33:40.215Z,2.45
2022-10-05T14:36:16.419Z,2.75
2022-10-05T14:38:57.812Z,2.92
2022-10-05T14:41:27.333Z,2.67
2022-10-05T14:47:30.773Z,2.35
2022-10-05T14:50:17.813Z,2.58
2022-10-05T14:52:59.383Z,2.60
2022-10-05T14:56:10.402Z,2.60
2022-10-05T14:59:10.474Z,2.17
2022-10-05T15:01:44.341Z,2.72
2022-10-05T15:04:44.157Z,2.45
2022-10-05T15:07:44.501Z,3.15
2022-10-05T15:10:41.809Z,1.85
2022-10-05T15:13:32.200Z,2.22
2022-10-05T15:16:31.303Z,2.28
2022-10-05T15:19:31.199Z,2.88
2022-10-05T15:22:23.591Z,2.25
2022-10-05T15:25:12.067Z,2.50
2022-10-05T15:28:01.915Z,2.40
2022-10-05T15:30:29.047Z,2.38
2022-10-05T15:33:34.251Z,2.25
2022-10-05T15:36:16.995Z,2.25
2022-10-05T15:39:02.643Z,2.40
2022-10-05T15:42:20.511Z,2.83
2022-10-05T15:45:06.518Z,2.63
2022-10-05T15:47:48.293Z,2.30
2022-10-05T15:50:45.860Z,2.23
2022-10-05T15:53:21.318Z,2.50
2022-10-05T15:56:08.792Z,2.30
2022-10-05T15:58:50.041Z,1.80
2022-10-05T16:01:23.444Z,2.25
2022-10-05T16:04:13.998Z,2.17
2022-10-05T16:07:19.107Z,2.30
2022-10-05T16:09:52.807Z,2.90
2022-10-05T16:13:11.483Z,2.47
2022-10-05T16:15:48.679Z,3.30
2022-10-05T16:18:36.432Z,2.25
2022-10-05T16:21:05.833Z,2.30
2022-10-05T16:24:40.862Z,1.67
2022-10-05T16:27:22.510Z,2.28
2022-10-05T16:30:02.122Z,2.33
2022-10-05T16:32:57.990Z,2.97
2022-10-05T16:35:44.317Z,3.42
2022-10-05T16:38:38.682Z,3.20
2022-10-05T16:41:21.038Z,3.15
2022-10-05T16:44:13.526Z,3.17
2022-10-05T16:46:49.410Z,3.22
2022-10-05T16:49:51.401Z,3.80
2022-10-05T16:52:21.330Z,3.50
2022-10-05T16:54:53.870Z,4.15
2022-10-05T16:57:25.102Z,3.40
2022-10-05T17:00:15.927Z,3.85
2022-10-05T17:03:13.270Z,4.45
2022-10-05T17:06:05.625Z,4.20
2022-10-05T17:09:09.505Z,5.15
2022-10-05T17:12:15.044Z,4.75
2022-10-05T17:15:29.757Z,5.93
2022-10-05T17:18:30.296Z,5.05
2022-10-05T17:21:21.451Z,4.93
2022-10-05T17:23:55.929Z,4.78
2022-10-05T17:29:32.168Z,6.10
2022-10-05T17:32:30.160Z,5.57
2022-10-05T17:35:18.929Z,6.65
2022-10-05T17:50:21.689Z,8.73
2022-10-05T17:53:40.197Z,6.78
2022-10-05T17:56:07.039Z,8.88
2022-10-05T17:59:01.191Z,9.50
2022-10-05T18:01:36.381Z,9.13
2022-10-05T18:04:38.211Z,9.48
2022-10-05T18:07:17.935Z,8.30
2022-10-05T18:10:19.349Z,8.95
2022-10-05T18:13:18.057Z,9.20
2022-10-05T18:15:48.699Z,9.73
2022-10-05T18:18:35.759Z,8.02
2022-10-05T18:21:30.533Z,8.85
2022-10-05T18:24:26.946Z,8.52
2022-10-05T18:27:26.470Z,8.02
2022-10-05T18:30:06.465Z,7.60
2022-10-05T18:33:23.305Z,8.60
2022-10-05T18:36:38.096Z,7.72
2022-10-05T18:39:29.015Z,7.32
2022-10-05T18:42:17.271Z,6.25
2022-10-05T18:44:49.400Z,6.57
2022-10-05T18:48:12.854Z,6.43
2022-10-05T18:51:17.892Z,5.90
2022-10-05T18:54:38.504Z,6.43
2022-10-05T18:58:03.855Z,6.38
2022-10-05T19:01:00.162Z,6.25
2022-10-05T19:04:13.360Z,6.25
2022-10-05T19:35:23.514Z,6.80
2022-10-05T19:38:26.256Z,6.60
2022-10-05T19:41:17.665Z,7.85
2022-10-05T19:44:35.563Z,6.63
2022-10-05T19:47:43.787Z,6.63
2022-10-05T19:50:34.427Z,6.43
2022-10-05T19:53:11.227Z,6.43
2022-10-05T19:55:41.764Z,6.70
2022-10-05T19:58:28.494Z,6.25
2022-10-05T20:01:00.657Z,6.97
2022-10-05T20:03:32.389Z,6.72
2022-10-05T20:06:04.275Z,7.07
2022-10-05T20:08:39.462Z,7.95
2022-10-05T20:11:11.980Z,6.70
2022-10-05T20:16:49.131Z,6.60
2022-10-05T20:19:52.227Z,6.53
2022-10-05T20:25:18.307Z,6.82
2022-10-05T20:27:53.194Z,6.10
2022-10-05T20:30:21.290Z,6.90
2022-10-05T20:32:59.548Z,6.68
2022-10-05T20:35:30.425Z,5.95
2022-10-05T20:37:59.728Z,5.68
2022-10-05T20:40:29.124Z,6.28
2022-10-05T20:42:56.484Z,5.28
2022-10-05T20:45:23.089Z,5.35
2022-10-05T20:47:51.009Z,5.53
2022-10-05T20:50:17.896Z,4.75
2022-10-05T20:52:44.677Z,5.07
2022-10-05T20:55:12.337Z,3.90
2022-10-05T20:57:42.073Z,4.55
2022-10-05T21:00:13.016Z,3.42
2022-10-05T21:02:39.869Z,4.38
2022-10-05T21:05:07.786Z,4.45
2022-10-05T21:07:34.644Z,3.72
2022-10-05T21:10:02.343Z,3.63
2022-10-05T21:12:29.327Z,4.25
2022-10-05T21:14:56.145Z,4.85
2022-10-05T21:17:22.697Z,4.55
2022-10-05T21:19:49.303Z,4.57
2022-10-05T21:22:15.967Z,4.60
2022-10-05T21:24:42.564Z,4.47
2022-10-05T21:27:10.199Z,5.00
2022-10-05T21:29:37.144Z,4.88
2022-10-05T21:32:08.419Z,5.25
2022-10-05T21:34:35.396Z,7.15
2022-10-05T21:37:02.171Z,6.45
2022-10-05T21:39:28.983Z,6.97
2022-10-05T21:41:56.274Z,6.90
2022-10-05T21:44:22.870Z,6.95
2022-10-05T21:46:49.634Z,8.85
2022-10-05T21:49:18.960Z,8.15
2022-10-05T21:51:47.838Z,7.00
2022-10-05T21:54:19.587Z,7.05
2022-10-05T21:56:49.945Z,6.67
2022-10-05T21:59:20.319Z,6.45
2022-10-05T22:01:47.211Z,6.88
2022-10-05T22:04:15.063Z,6.60
2022-10-05T22:06:41.765Z,6.95
2022-10-05T22:09:08.329Z,7.10
2022-10-05T22:11:35.122Z,5.78
2022-10-05T22:14:04.695Z,5.30
2022-10-05T22:16:34.427Z,5.00
2022-10-05T22:19:06.398Z,5.13
2022-10-05T22:21:37.919Z,4.97
2022-10-05T22:24:05.181Z,4.10
2022-10-05T22:26:32.090Z,4.40
2022-10-05T22:28:58.881Z,4.43
2022-10-05T22:31:25.651Z,3.78
2022-10-05T22:33:52.281Z,3.35
2022-10-05T22:36:19.652Z,3.95
2022-10-05T22:38:47.587Z,4.20
2022-10-05T22:41:15.356Z,4.50
2022-10-05T22:43:42.072Z,4.05
2022-10-05T22:46:12.910Z,4.57
2022-10-05T22:48:40.258Z,4.28
2022-10-05T22:51:08.847Z,4.95
2022-10-05T22:53:35.897Z,3.60
2022-10-05T22:56:10.888Z,4.18
2022-10-05T22:58:38.389Z,3.50
2022-10-05T23:01:07.415Z,3.75
2022-10-05T23:03:34.586Z,2.88
2022-10-05T23:06:04.426Z,2.95
2022-10-05T23:08:33.092Z,3.15
2022-10-05T23:11:08.295Z,2.90
2022-10-05T23:13:34.833Z,3.35
2022-10-05T23:16:15.587Z,3.40
2022-10-05T23:18:43.443Z,3.08
2022-10-05T23:21:11.610Z,3.38
2022-10-05T23:23:40.745Z,2.92
2022-10-05T23:26:10.484Z,3.55
2022-10-05T23:28:39.382Z,2.90
2022-10-05T23:31:08.073Z,2.90
2022-10-05T23:33:35.462Z,2.65
2022-10-05T23:36:12.401Z,2.50
2022-10-05T23:38:39.004Z,2.50
2022-10-05T23:41:06.306Z,3.03
2022-10-05T23:43:33.837Z,2.88
2022-10-05T23:46:01.215Z,2.72
2022-10-05T23:48:28.317Z,2.40
2022-10-05T23:50:55.780Z,2.40
2022-10-05T23:53:23.395Z,2.90
2022-10-05T23:55:53.781Z,2.90
2022-10-05T23:58:21.644Z,3.10
